Time;durP1;ratioP1;P1;durP2;ratioP2;P2;SDS_P1;SDS_P2;PMS_P1;PMS_P2;Temp;Humidity;BMP_temperature;BMP_pressure;BME280_temperature;BME280_humidity;BME280_pressure;Samples;Min_cycle;Max_cycle;Signal;HPM_P1;HPM_P2
2022/01/13 00:01:30;;;;;;;22.73;13.72;;;;;;;-12.27;55.52;101849.55;1752683;79;21097;-60
2022/01/13 00:03:50;;;;;;;22.48;12.80;;;;;;;-12.31;55.49;101843.02;1763395;79;21115;-60
2022/01/13 00:06:16;;;;;;;25.00;12.30;;;;;;;-12.34;55.70;101845.03;1762083;79;21568;-60
2022/01/13 00:08:43;;;;;;;26.80;13.90;;;;;;;-12.26;55.67;101851.66;1762596;79;21055;-60
2022/01/13 00:11:10;;;;;;;25.05;12.80;;;;;;;-12.24;55.42;101838.62;1765461;79;21101;-60
2022/01/13 00:19:05;;;;;;;24.82;12.90;;;;;;;-12.30;55.12;101829.13;1762801;79;22350;-60
2022/01/13 00:21:38;;;;;;;20.02;12.98;;;;;;;-12.29;55.05;101826.18;1757512;79;21525;-59
2022/01/13 00:24:05;;;;;;;31.85;13.83;;;;;;;-12.34;54.81;101826.00;1761837;79;22536;-59
2022/01/13 00:26:34;;;;;;;24.67;13.50;;;;;;;-12.45;54.74;101819.28;1743113;80;21072;-60
2022/01/13 00:29:03;;;;;;;21.93;12.03;;;;;;;-12.53;54.78;101819.39;1760663;79;21890;-60
2022/01/13 00:31:33;;;;;;;23.95;12.65;;;;;;;-12.62;54.92;101826.64;1762883;79;21555;-59
2022/01/13 00:34:02;;;;;;;25.60;13.62;;;;;;;-12.75;55.13;101836.32;1760967;79;21092;-59
2022/01/13 00:36:32;;;;;;;26.40;12.03;;;;;;;-12.85;55.46;101839.72;1759952;79;21138;-59
2022/01/13 00:38:59;;;;;;;29.55;13.03;;;;;;;-12.92;55.83;101837.35;1756533;79;21046;-59
2022/01/13 00:41:28;;;;;;;23.57;13.15;;;;;;;-12.93;55.98;101840.27;1763587;79;21055;-60
2022/01/13 00:43:57;;;;;;;24.43;12.85;;;;;;;-12.94;56.07;101845.30;1762933;79;21075;-59
2022/01/13 00:46:26;;;;;;;28.62;13.88;;;;;;;-12.94;56.25;101842.36;1761552;79;21528;-59
2022/01/13 00:48:54;;;;;;;25.45;12.45;;;;;;;-12.93;56.42;101841.94;1761763;79;23311;-61
2022/01/13 00:51:23;;;;;;;25.12;12.30;;;;;;;-12.95;56.50;101840.61;1759912;79;21110;-59
2022/01/13 00:54:05;;;;;;;28.42;12.95;;;;;;;-12.94;56.66;101833.90;1762330;79;21818;-60
2022/01/13 00:56:33;;;;;;;21.97;11.57;;;;;;;-12.95;56.72;101835.55;1762804;79;21842;-59
2022/01/13 00:59:01;;;;;;;24.45;12.03;;;;;;;-12.92;56.85;101843.69;1761248;79;21083;-59
2022/01/13 01:01:28;;;;;;;22.55;11.40;;;;;;;-12.91;57.02;101839.06;1758021;79;21143;-59
2022/01/13 01:03:54;;;;;;;20.40;12.37;;;;;;;-12.85;57.00;101835.51;1758641;79;22570;-59
2022/01/13 01:06:20;;;;;;;22.25;10.58;;;;;;;-12.86;56.97;101836.72;1759739;79;21137;-59
2022/01/13 01:08:47;;;;;;;24.47;10.82;;;;;;;-12.85;57.03;101821.98;1759258;79;21578;-59
2022/01/13 01:11:13;;;;;;;18.07;10.78;;;;;;;-12.84;57.11;101835.09;1761688;79;21335;-59
2022/01/13 01:13:40;;;;;;;24.60;11.15;;;;;;;-12.85;57.23;101828.31;1766490;78;21174;-59
2022/01/13 01:16:09;;;;;;;17.77;10.05;;;;;;;-12.82;57.25;101829.30;1764010;79;21130;-60
2022/01/13 01:26:39;;;;;;;20.30;10.00;;;;;;;-12.86;57.22;101829.11;1745299;79;21090;-60
2022/01/13 01:29:52;;;;;;;22.85;10.90;;;;;;;-12.87;57.18;101823.19;1758470;79;21085;-60
2022/01/13 01:31:30;;;;;;;20.65;10.28;;;;;;;-12.91;57.26;101826.01;1739456;79;21053;-60
2022/01/13 01:36:41;;;;;;;16.53;9.43;;;;;;;-12.93;57.54;101814.92;1741230;79;21125;-60
2022/01/13 01:39:08;;;;;;;17.35;9.55;;;;;;;-12.91;57.47;101823.47;1761327;79;21730;-61
2022/01/13 01:41:46;;;;;;;17.07;9.80;;;;;;;-12.91;57.50;101831.08;1766167;79;21051;-60
2022/01/13 01:44:15;;;;;;;23.90;10.05;;;;;;;-12.94;57.74;101828.42;1737731;80;21095;-60
2022/01/13 01:46:45;;;;;;;17.60;10.20;;;;;;;-12.97;58.08;101829.97;1762429;79;21091;-60
2022/01/13 01:49:19;;;;;;;21.33;9.90;;;;;;;-13.01;58.45;101825.57;1763610;79;21526;-60
2022/01/13 01:51:46;;;;;;;15.08;8.13;;;;;;;-13.03;58.88;101819.58;1764526;79;21779;-60
2022/01/13 01:54:12;;;;;;;21.02;8.33;;;;;;;-13.05;59.23;101812.33;1762489;79;21113;-60
2022/01/13 01:56:39;;;;;;;17.92;9.83;;;;;;;-13.02;59.33;101808.24;1765057;79;20980;-60
2022/01/13 01:59:11;;;;;;;21.52;9.63;;;;;;;-13.02;59.32;101800.64;1744852;80;21560;-60
2022/01/13 02:01:37;;;;;;;19.42;10.20;;;;;;;-13.02;59.34;101814.58;1743682;80;22218;-60
2022/01/13 02:04:04;;;;;;;21.62;11.35;;;;;;;-13.02;59.47;101806.98;1738776;79;21109;-60
2022/01/13 02:06:31;;;;;;;19.35;10.55;;;;;;;-12.99;59.51;101799.87;1770869;79;21031;-60
2022/01/13 02:08:58;;;;;;;23.25;10.68;;;;;;;-12.95;59.40;101796.27;1773259;79;22048;-60
2022/01/13 02:11:25;;;;;;;16.15;8.88;;;;;;;-12.88;59.27;101796.52;1772580;79;21790;-60
2022/01/13 02:13:58;;;;;;;19.67;8.83;;;;;;;-12.82;59.16;101785.35;1744517;79;21368;-60
2022/01/13 02:16:47;;;;;;;19.07;9.45;;;;;;;-12.73;58.90;101801.75;1773299;79;21150;-60
2022/01/13 02:18:53;;;;;;;19.23;9.48;;;;;;;-12.67;58.70;101791.38;1729795;79;21630;-60
2022/01/13 02:21:21;;;;;;;18.65;9.33;;;;;;;-12.63;58.56;101789.02;1770782;79;21594;-60
2022/01/13 02:23:48;;;;;;;20.05;9.28;;;;;;;-12.57;58.48;101790.52;1772864;79;21047;-60
2022/01/13 02:26:14;;;;;;;19.25;7.97;;;;;;;-12.52;58.35;101792.83;1734284;80;21398;-60
2022/01/13 02:28:43;;;;;;;21.02;9.50;;;;;;;-12.42;58.35;101781.73;1746364;80;22526;-60
2022/01/13 02:31:10;;;;;;;16.30;8.38;;;;;;;-12.33;58.29;101775.73;1735645;79;21051;-60
2022/01/13 02:33:38;;;;;;;15.43;8.63;;;;;;;-12.25;58.08;101780.69;1769820;79;21593;-60
2022/01/13 02:36:07;;;;;;;19.57;8.65;;;;;;;-12.19;57.98;101785.10;1772294;79;21780;-60
2022/01/13 02:38:35;;;;;;;18.87;9.68;;;;;;;-12.15;58.09;101781.88;1737474;79;21059;-60
2022/01/13 02:41:02;;;;;;;15.78;8.68;;;;;;;-12.07;57.87;101788.06;1773174;79;21099;-61
2022/01/13 02:43:30;;;;;;;15.95;8.23;;;;;;;-12.02;57.62;101791.66;1767877;79;21023;-60
2022/01/13 02:48:35;;;;;;;21.97;10.20;;;;;;;-12.02;57.37;101780.61;1768570;79;21105;-59
2022/01/13 02:51:02;;;;;;;13.20;7.83;;;;;;;-12.01;57.35;101783.63;1769686;79;20991;-59
2022/01/13 02:53:28;;;;;;;17.98;9.28;;;;;;;-12.00;57.29;101784.95;1767462;79;21141;-60
2022/01/13 02:56:02;;;;;;;15.53;9.00;;;;;;;-11.98;57.16;101782.47;1765258;79;21664;-60
2022/01/13 02:58:26;;;;;;;17.75;9.38;;;;;;;-11.98;57.26;101777.39;1765522;79;21552;-58
2022/01/13 03:00:53;;;;;;;20.00;9.25;;;;;;;-11.94;57.27;101770.33;1736678;79;21102;-58
2022/01/13 03:03:20;;;;;;;16.82;8.70;;;;;;;-11.93;57.12;101775.87;1765737;79;21063;-59
2022/01/13 03:05:46;;;;;;;18.27;8.83;;;;;;;-11.91;57.34;101761.97;1744796;79;21226;-58
2022/01/13 03:08:12;;;;;;;19.75;9.58;;;;;;;-11.82;57.25;101765.62;1772884;78;21078;-60
2022/01/13 03:10:39;;;;;;;17.67;8.55;;;;;;;-11.79;56.92;101764.45;1777998;78;21070;-59
2022/01/13 03:13:06;;;;;;;19.75;9.75;;;;;;;-11.77;56.90;101759.05;1770485;79;21066;-60
2022/01/13 03:15:33;;;;;;;20.57;9.15;;;;;;;-11.71;56.75;101747.38;1771915;79;21117;-59
2022/01/13 03:17:59;;;;;;;16.70;8.33;;;;;;;-11.66;56.61;101745.84;1772443;78;23299;-59
2022/01/13 03:20:26;;;;;;;18.10;8.20;;;;;;;-11.60;56.50;101742.21;1734141;81;21078;-59
2022/01/13 03:22:52;;;;;;;17.57;9.53;;;;;;;-11.51;56.43;101746.34;1769414;79;21798;-59
2022/01/13 03:25:23;;;;;;;19.57;8.90;;;;;;;-11.41;56.22;101748.77;1772318;79;21137;-59
2022/01/13 03:27:56;;;;;;;16.27;9.03;;;;;;;-11.34;55.88;101750.67;1772417;79;21039;-60
2022/01/13 03:30:21;;;;;;;16.05;9.03;;;;;;;-11.32;55.46;101760.89;1776177;79;21752;-60
2022/01/13 03:32:48;;;;;;;17.98;8.65;;;;;;;-11.32;55.21;101763.44;1732374;81;21113;-61
2022/01/13 03:35:15;;;;;;;20.27;8.95;;;;;;;-11.30;54.97;101757.98;1769536;78;21080;-60
2022/01/13 03:37:42;;;;;;;21.27;9.55;;;;;;;-11.30;54.85;101747.83;1774064;79;21209;-60
2022/01/13 03:40:10;;;;;;;18.82;9.20;;;;;;;-11.29;54.73;101750.41;1774112;78;21069;-60
2022/01/13 03:42:37;;;;;;;18.00;9.28;;;;;;;-11.29;54.48;101754.22;1772585;79;21095;-60
2022/01/13 03:45:06;;;;;;;22.10;10.30;;;;;;;-11.32;54.23;101741.42;1767846;79;21117;-60
2022/01/13 03:47:32;;;;;;;17.48;10.63;;;;;;;-11.36;54.08;101748.89;1746846;79;21067;-60
2022/01/13 03:49:59;;;;;;;20.62;10.00;;;;;;;-11.44;53.99;101748.66;1772606;78;21062;-60
2022/01/13 03:52:51;;;;;;;21.00;10.20;;;;;;;-11.50;54.03;101737.88;1773944;78;21046;-60
2022/01/13 03:55:41;;;;;;;22.85;10.90;;;;;;;-11.52;54.09;101749.67;1772744;78;23262;-60
2022/01/13 03:58:30;;;;;;;17.77;9.88;;;;;;;-11.53;54.08;101740.34;1772424;79;21585;-60
2022/01/13 04:01:25;;;;;;;19.17;8.90;;;;;;;-11.53;54.18;101737.81;1744821;79;21103;-61
2022/01/13 04:03:52;;;;;;;15.88;8.75;;;;;;;-11.51;54.04;101738.71;1774782;79;21083;-60
2022/01/13 04:06:24;;;;;;;14.18;8.25;;;;;;;-11.50;54.01;101734.48;1774539;79;21103;-61
2022/01/13 04:08:50;;;;;;;18.15;8.88;;;;;;;-11.50;54.01;101747.19;1772248;78;22143;-63
2022/01/13 04:11:32;;;;;;;15.32;7.08;;;;;;;-11.48;54.09;101743.02;1770983;79;21058;-61
2022/01/13 04:14:05;;;;;;;16.35;8.35;;;;;;;-11.47;53.97;101751.10;1775486;79;21906;-59
2022/01/13 04:16:36;;;;;;;15.83;9.35;;;;;;;-11.48;54.13;101758.25;1771432;79;21501;-60
2022/01/13 04:19:06;;;;;;;12.78;6.70;;;;;;;-11.44;54.17;101758.83;1769044;79;21081;-60
2022/01/13 04:21:38;;;;;;;16.10;7.30;;;;;;;-11.46;53.98;101760.46;1774279;79;21815;-61
2022/01/13 04:24:06;;;;;;;14.98;7.25;;;;;;;-11.52;54.27;101756.03;1744616;79;21106;-60
2022/01/13 04:26:34;;;;;;;13.35;7.08;;;;;;;-11.52;54.25;101762.37;1768503;78;21069;-61
2022/01/13 04:31:44;;;;;;;18.70;7.50;;;;;;;-11.52;54.37;101759.84;1767437;79;21613;-62
2022/01/13 04:34:11;;;;;;;12.68;6.75;;;;;;;-11.54;54.45;101760.20;1770230;79;21485;-62
2022/01/13 04:36:37;;;;;;;19.37;8.50;;;;;;;-11.53;54.57;101742.89;1772217;79;21136;-61
2022/01/13 04:39:05;;;;;;;18.52;9.18;;;;;;;-11.46;54.69;101742.27;1765869;79;21079;-62
2022/01/13 04:41:36;;;;;;;18.20;8.85;;;;;;;-11.37;54.50;101742.10;1770914;79;21742;-61
2022/01/13 04:44:08;;;;;;;17.60;7.92;;;;;;;-11.36;54.22;101729.83;1773741;78;21572;-61
2022/01/13 04:46:35;;;;;;;16.82;7.62;;;;;;;-11.35;54.25;101720.14;1771246;78;21392;-61
2022/01/13 04:49:01;;;;;;;12.05;6.15;;;;;;;-11.30;54.16;101724.53;1747447;80;21101;-60
2022/01/13 04:51:28;;;;;;;13.40;7.45;;;;;;;-11.26;54.13;101715.33;1768642;79;21044;-62
2022/01/13 04:53:54;;;;;;;13.58;7.10;;;;;;;-11.24;53.87;101708.64;1769331;79;21558;-61
2022/01/13 04:56:37;;;;;;;15.72;6.97;;;;;;;-11.24;53.73;101701.86;1744832;79;21079;-60
2022/01/13 04:58:55;;;;;;;11.93;7.12;;;;;;;-11.23;53.72;101707.80;1767213;79;22428;-61
2022/01/13 05:01:22;;;;;;;16.07;7.22;;;;;;;-11.16;53.60;101697.03;1771664;78;21140;-60
2022/01/13 05:03:48;;;;;;;15.48;6.45;;;;;;;-11.11;53.47;101690.40;1760222;79;21021;-61
2022/01/13 05:06:18;;;;;;;13.58;6.62;;;;;;;-11.09;53.39;101691.30;1762152;79;21125;-61
2022/01/13 05:08:43;;;;;;;11.18;6.37;;;;;;;-11.06;53.42;101687.97;1761327;79;21050;-61
2022/01/13 05:11:09;;;;;;;12.63;6.28;;;;;;;-11.04;53.33;101702.88;1758059;80;22789;-60
2022/01/13 05:13:36;;;;;;;11.70;6.72;;;;;;;-11.03;53.28;101702.05;1760786;79;21093;-60
2022/01/13 05:16:02;;;;;;;13.95;6.75;;;;;;;-11.03;53.20;101709.28;1760419;79;21070;-61
2022/01/13 05:18:44;;;;;;;13.25;7.00;;;;;;;-11.05;53.04;101705.81;1763741;79;21103;-60
2022/01/13 05:21:05;;;;;;;12.78;5.92;;;;;;;-11.04;52.96;101699.92;1761636;79;21056;-60
2022/01/13 05:23:26;;;;;;;14.75;7.03;;;;;;;-11.04;52.77;101688.91;1757731;79;21090;-59
2022/01/13 05:25:52;;;;;;;13.83;6.60;;;;;;;-10.98;52.51;101686.52;1768094;79;21077;-59
2022/01/13 05:28:18;;;;;;;14.55;7.22;;;;;;;-10.95;52.40;101679.40;1758332;79;21489;-60
2022/01/13 05:30:45;;;;;;;12.10;6.78;;;;;;;-10.89;52.35;101673.20;1764389;79;21134;-59
2022/01/13 05:33:11;;;;;;;13.38;7.17;;;;;;;-10.84;51.89;101679.31;1761520;79;21510;-59
2022/01/13 05:35:37;;;;;;;14.35;7.35;;;;;;;-10.86;51.67;101666.94;1763360;79;21068;-62
2022/01/13 05:38:05;;;;;;;13.85;7.15;;;;;;;-10.86;51.56;101669.09;1741220;79;21203;-60
2022/01/13 05:40:33;;;;;;;25.08;9.23;;;;;;;-10.87;51.30;101662.69;1741967;80;21674;-62
2022/01/13 05:43:00;;;;;;;18.37;8.95;;;;;;;-10.89;51.46;101660.10;1740028;80;21048;-62
2022/01/13 05:45:32;;;;;;;16.05;8.18;;;;;;;-10.89;51.51;101656.67;1739227;80;21482;-63
2022/01/13 05:47:58;;;;;;;14.73;8.18;;;;;;;-10.89;51.50;101652.86;1762735;79;21093;-63
2022/01/13 05:50:25;;;;;;;17.90;8.13;;;;;;;-10.89;51.41;101649.05;1761680;79;21653;-65
2022/01/13 05:52:51;;;;;;;21.45;9.40;;;;;;;-10.91;51.51;101654.12;1759882;79;21197;-63
2022/01/13 05:55:20;;;;;;;17.70;9.28;;;;;;;-10.95;51.58;101642.12;1757372;79;21049;-63
2022/01/13 05:57:46;;;;;;;16.27;9.45;;;;;;;-10.97;51.71;101648.84;1758905;79;21078;-62
2022/01/13 06:00:16;;;;;;;20.05;9.68;;;;;;;-10.99;51.67;101656.84;1764504;79;21077;-63
2022/01/13 06:02:43;;;;;;;23.35;10.65;;;;;;;-11.03;51.63;101657.17;1764319;79;21050;-63
2022/01/13 06:05:10;;;;;;;22.37;11.10;;;;;;;-11.02;51.65;101660.15;1759645;79;21639;-64
2022/01/13 06:07:37;;;;;;;18.48;10.00;;;;;;;-10.97;51.46;101670.87;1760659;79;21082;-62
2022/01/13 06:10:05;;;;;;;21.12;10.38;;;;;;;-10.96;51.21;101664.95;1762650;79;21561;-61
2022/01/13 06:12:33;;;;;;;20.82;12.33;;;;;;;-10.95;51.32;101674.31;1759009;79;21071;-66
2022/01/13 06:15:05;;;;;;;18.48;11.63;;;;;;;-10.86;51.47;101674.56;1760590;79;20991;-66
2022/01/13 06:17:34;;;;;;;23.45;11.97;;;;;;;-10.74;51.50;101674.93;1759896;79;21114;-62
2022/01/13 06:20:00;;;;;;;21.02;11.85;;;;;;;-10.65;51.35;101661.17;1762389;79;21389;-62
2022/01/13 06:22:27;;;;;;;23.77;13.83;;;;;;;-10.58;51.35;101658.39;1762781;79;21082;-63
2022/01/13 06:24:53;;;;;;;25.00;12.75;;;;;;;-10.50;51.17;101660.73;1760869;79;21149;-63
2022/01/13 06:27:21;;;;;;;25.02;13.93;;;;;;;-10.45;51.25;101658.33;1760881;79;21114;-61
2022/01/13 06:29:50;;;;;;;27.65;13.13;;;;;;;-10.37;51.07;101659.39;1760794;79;21563;-59
2022/01/13 06:32:17;;;;;;;26.65;13.28;;;;;;;-10.30;50.92;101661.23;1758674;79;22288;-60
2022/01/13 06:34:44;;;;;;;23.75;12.70;;;;;;;-10.24;50.92;101660.94;1761994;79;21098;-61
2022/01/13 06:37:10;;;;;;;22.10;11.25;;;;;;;-10.19;50.98;101656.83;1744020;80;21126;-60
2022/01/13 06:39:38;;;;;;;24.47;13.15;;;;;;;-10.18;50.72;101667.47;1757671;79;21110;-61
2022/01/13 06:42:06;;;;;;;20.08;11.55;;;;;;;-10.18;50.83;101664.92;1759908;79;21101;-62
2022/01/13 06:44:32;;;;;;;22.62;11.65;;;;;;;-10.13;50.93;101650.63;1762746;79;21141;-63
2022/01/13 06:46:59;;;;;;;20.45;11.20;;;;;;;-10.03;51.07;101645.36;1757835;79;21757;-62
2022/01/13 06:49:25;;;;;;;18.67;9.85;;;;;;;-9.96;51.27;101634.06;1743696;79;21109;-62
2022/01/13 06:51:51;;;;;;;16.45;9.20;;;;;;;-9.85;51.26;101630.91;1737261;80;21658;-62
2022/01/13 06:54:17;;;;;;;16.50;9.25;;;;;;;-9.76;51.06;101606.52;1763131;79;21097;-63
2022/01/13 06:56:44;;;;;;;24.32;10.35;;;;;;;-9.68;51.19;101610.53;1680144;82;21413;-61
2022/01/13 06:59:12;;;;;;;31.62;12.05;;;;;;;-9.55;51.22;101609.09;1757426;79;21052;-61
2022/01/13 07:01:39;;;;;;;31.57;14.90;;;;;;;-9.47;51.34;101610.13;1744773;79;21076;-61
2022/01/13 07:04:09;;;;;;;32.23;16.97;;;;;;;-9.40;51.00;101604.33;1758384;79;21091;-61
2022/01/13 07:06:35;;;;;;;34.70;16.60;;;;;;;-9.34;51.22;101612.55;1760496;79;21099;-62
2022/01/13 07:09:03;;;;;;;28.87;15.75;;;;;;;-9.27;51.03;101608.44;1760869;79;21049;-61
2022/01/13 07:11:31;;;;;;;30.95;17.85;;;;;;;-9.23;51.26;101604.72;1764130;79;21145;-61
2022/01/13 07:13:57;;;;;;;27.15;15.03;;;;;;;-9.18;51.02;101613.70;1737916;80;21656;-61
2022/01/13 07:16:26;;;;;;;23.20;14.80;;;;;;;-9.13;50.91;101609.56;1766364;79;21592;-64
2022/01/13 07:18:52;;;;;;;25.80;13.75;;;;;;;-9.12;50.73;101604.92;1761708;79;21031;-62
2022/01/13 07:21:20;;;;;;;23.50;12.60;;;;;;;-9.11;50.97;101581.55;1760157;79;21098;-64
2022/01/13 07:23:47;;;;;;;24.70;12.33;;;;;;;-9.05;51.12;101563.83;1760933;79;21070;-64
2022/01/13 07:26:13;;;;;;;22.35;13.18;;;;;;;-9.02;51.01;101551.99;1760201;79;23236;-64
2022/01/13 07:28:41;;;;;;;23.25;13.48;;;;;;;-8.96;51.24;101563.98;1757874;79;21106;-64
2022/01/13 07:31:07;;;;;;;26.50;13.65;;;;;;;-8.90;51.00;101559.44;1757396;79;21059;-63
2022/01/13 07:33:33;;;;;;;24.82;12.28;;;;;;;-8.85;51.18;101554.00;1763737;79;21129;-62
2022/01/13 07:36:00;;;;;;;28.38;13.83;;;;;;;-8.79;51.18;101551.16;1736253;80;21055;-60
2022/01/13 07:38:26;;;;;;;28.07;12.65;;;;;;;-8.74;51.25;101535.05;1746274;79;21136;-62
2022/01/13 07:40:53;;;;;;;26.45;14.03;;;;;;;-8.69;51.34;101530.89;1763104;80;21075;-61
2022/01/13 07:43:24;;;;;;;25.52;13.60;;;;;;;-8.62;51.64;101531.46;1744175;80;21090;-62
2022/01/13 07:45:52;;;;;;;28.25;14.78;;;;;;;-8.47;51.92;101530.83;1764670;79;21098;-62
2022/01/13 07:48:18;;;;;;;25.10;15.50;;;;;;;-8.35;51.96;101514.42;1763373;79;21122;-61
2022/01/13 07:50:45;;;;;;;24.52;14.58;;;;;;;-8.26;52.00;101511.15;1761918;79;23309;-62
2022/01/13 07:53:11;;;;;;;23.80;15.03;;;;;;;-8.14;52.15;101498.55;1762357;79;21000;-62
2022/01/13 07:55:37;;;;;;;23.87;14.20;;;;;;;-8.06;52.25;101481.65;1764083;79;21449;-63
2022/01/13 07:58:04;;;;;;;27.40;15.58;;;;;;;-8.03;52.75;101467.65;1756960;79;21739;-71
2022/01/13 08:00:30;;;;;;;24.45;14.35;;;;;;;-7.95;53.06;101467.77;1744052;79;21106;-66
2022/01/13 08:03:01;;;;;;;29.23;13.58;;;;;;;-7.92;53.37;101463.95;1760548;79;21499;-68
2022/01/13 08:05:28;;;;;;;26.37;12.20;;;;;;;-7.87;53.86;101473.84;1760846;79;21067;-71
2022/01/13 08:07:55;;;;;;;24.20;11.33;;;;;;;-7.77;54.20;101466.28;1761388;79;21035;-68
2022/01/13 08:10:23;;;;;;;22.13;11.90;;;;;;;-7.70;54.49;101470.22;1763283;79;21114;-68
2022/01/13 08:12:51;;;;;;;20.23;10.08;;;;;;;-7.63;54.61;101473.71;1761872;79;21090;-71
2022/01/13 08:15:18;;;;;;;19.20;10.68;;;;;;;-7.58;54.81;101476.30;1760876;79;23180;-70
2022/01/13 08:20:35;;;;;;;22.47;11.53;;;;;;;-7.34;55.26;101482.98;1768239;79;22301;-62
2022/01/13 08:23:02;;;;;;;21.00;11.75;;;;;;;-7.18;55.24;101478.03;1758563;79;21082;-61
2022/01/13 08:25:28;;;;;;;24.18;12.18;;;;;;;-7.05;55.52;101479.88;1740355;79;21592;-62
2022/01/13 08:27:55;;;;;;;25.65;12.88;;;;;;;-6.91;55.63;101481.28;1761117;79;21063;-63
2022/01/13 08:30:21;;;;;;;23.18;12.43;;;;;;;-6.85;55.79;101480.08;1758740;79;22153;-63
2022/01/13 08:32:48;;;;;;;25.85;12.25;;;;;;;-6.81;56.00;101472.84;1761623;79;21093;-62
2022/01/13 08:35:14;;;;;;;23.20;12.78;;;;;;;-6.70;56.24;101472.95;1761447;79;21375;-64
2022/01/13 08:37:41;;;;;;;23.25;13.30;;;;;;;-6.57;56.27;101478.61;1760072;79;21169;-64
2022/01/13 08:40:10;;;;;;;26.23;13.30;;;;;;;-6.53;56.28;101479.49;1760917;79;21901;-64
2022/01/13 08:42:36;;;;;;;26.02;11.68;;;;;;;-6.52;56.54;101459.86;1761433;79;21546;-64
2022/01/13 08:45:06;;;;;;;25.00;14.03;;;;;;;-6.50;56.84;101462.03;1760026;79;21502;-63
2022/01/13 08:47:32;;;;;;;21.45;11.88;;;;;;;-6.50;56.96;101451.79;1741482;79;21093;-63
2022/01/13 08:49:59;;;;;;;23.27;13.08;;;;;;;-6.48;57.26;101450.09;1759315;79;21568;-64
2022/01/13 08:52:27;;;;;;;21.48;12.68;;;;;;;-6.50;57.49;101441.11;1760170;79;21557;-64
2022/01/13 08:54:55;;;;;;;22.45;12.68;;;;;;;-6.43;57.81;101434.33;1761747;79;21109;-63
2022/01/13 08:57:23;;;;;;;22.35;13.20;;;;;;;-6.36;57.80;101424.12;1760379;80;21158;-63
2022/01/13 08:59:49;;;;;;;22.07;13.85;;;;;;;-6.28;57.82;101422.05;1762570;79;21121;-63
2022/01/13 09:02:16;;;;;;;22.10;12.63;;;;;;;-6.22;57.92;101411.82;1761926;79;21511;-62
2022/01/13 09:04:42;;;;;;;26.30;12.80;;;;;;;-6.12;57.95;101405.89;1763965;79;21130;-63
2022/01/13 09:07:10;;;;;;;21.77;12.80;;;;;;;-6.02;57.81;101404.23;1762110;79;21098;-64
2022/01/13 09:09:36;;;;;;;24.70;13.65;;;;;;;-5.99;57.70;101394.00;1762592;79;21082;-62
2022/01/13 09:12:04;;;;;;;23.00;12.47;;;;;;;-5.98;57.78;101386.33;1759777;79;21102;-63
2022/01/13 09:14:32;;;;;;;22.20;13.05;;;;;;;-5.95;58.02;101389.31;1762143;79;21009;-64
2022/01/13 09:17:00;;;;;;;25.30;13.45;;;;;;;-5.89;58.19;101382.91;1762979;79;21051;-63
2022/01/13 09:19:27;;;;;;;24.40;13.13;;;;;;;-5.77;58.19;101376.12;1759885;79;21164;-63
2022/01/13 09:21:53;;;;;;;21.62;12.07;;;;;;;-5.70;58.19;101375.28;1761373;79;21667;-64
2022/01/13 09:24:21;;;;;;;23.42;12.63;;;;;;;-5.58;58.17;101377.89;1762197;79;21555;-63
2022/01/13 09:26:48;;;;;;;24.18;12.23;;;;;;;-5.49;58.18;101369.36;1741572;80;21027;-63
2022/01/13 09:29:15;;;;;;;20.90;11.78;;;;;;;-5.35;58.09;101383.48;1761878;79;21050;-63
2022/01/13 09:31:43;;;;;;;26.37;13.28;;;;;;;-5.25;58.03;101387.77;1760505;79;21138;-63
2022/01/13 09:34:09;;;;;;;22.40;12.88;;;;;;;-5.17;58.12;101369.39;1755333;79;21363;-64
2022/01/13 09:36:37;;;;;;;22.45;12.88;;;;;;;-5.10;57.97;101348.00;1756884;79;21143;-65
2022/01/13 09:39:05;;;;;;;18.80;11.48;;;;;;;-5.05;57.99;101332.17;1739142;79;21094;-63
2022/01/13 09:41:32;;;;;;;22.07;13.72;;;;;;;-4.95;58.28;101318.91;1759036;79;21777;-62
2022/01/13 09:44:01;;;;;;;26.27;12.78;;;;;;;-4.84;58.23;101312.50;1762310;79;21596;-63
2022/01/13 09:46:28;;;;;;;25.82;12.80;;;;;;;-4.74;58.12;101311.63;1743397;79;21085;-63
2022/01/13 09:48:55;;;;;;;21.93;12.25;;;;;;;-4.68;58.04;101288.91;1759895;79;21047;-62
2022/01/13 09:51:25;;;;;;;23.55;13.38;;;;;;;-4.62;58.06;101282.89;1761183;79;21137;-63
2022/01/13 09:53:52;;;;;;;24.43;12.80;;;;;;;-4.63;58.18;101273.50;1764549;80;21048;-64
2022/01/13 09:56:20;;;;;;;21.40;11.63;;;;;;;-4.61;58.47;101271.33;1743796;79;21576;-64
2022/01/13 09:58:46;;;;;;;25.48;11.48;;;;;;;-4.57;58.54;101273.05;1762106;79;21126;-62
2022/01/13 10:01:14;;;;;;;22.73;12.98;;;;;;;-4.54;58.76;101277.30;1756195;79;21800;-65
2022/01/13 10:03:40;;;;;;;20.70;13.28;;;;;;;-4.53;58.90;101274.73;1706645;82;21605;-64
2022/01/13 10:06:16;;;;;;;22.40;12.33;;;;;;;-4.52;59.22;101271.76;1768868;79;21146;-63
2022/01/13 10:08:47;;;;;;;23.80;12.58;;;;;;;-4.49;59.56;101267.87;1768325;79;21077;-64
2022/01/13 10:11:41;;;;;;;22.95;13.25;;;;;;;-4.50;59.68;101253.34;1767575;79;21726;-62
2022/01/13 10:17:00;;;;;;;22.52;12.05;;;;;;;-4.47;60.38;101244.34;1762506;79;21672;-64
2022/01/13 10:20:21;;;;;;;20.52;12.50;;;;;;;-4.40;60.61;101222.05;1780388;78;22421;-64
2022/01/13 10:22:48;;;;;;;22.00;12.88;;;;;;;-4.42;60.68;101212.17;1706892;80;21022;-63
2022/01/13 10:25:27;;;;;;;22.73;12.68;;;;;;;-4.40;60.97;101204.06;1727716;80;21214;-62
2022/01/13 10:27:53;;;;;;;21.62;12.70;;;;;;;-4.35;61.15;101201.03;1743576;80;21138;-64
2022/01/13 10:30:22;;;;;;;25.23;14.03;;;;;;;-4.33;61.22;101204.44;1742177;80;21043;-64
2022/01/13 10:32:48;;;;;;;24.00;13.90;;;;;;;-4.32;61.37;101196.72;1743867;80;21042;-65
2022/01/13 10:35:17;;;;;;;24.40;13.25;;;;;;;-4.31;61.63;101200.98;1724273;80;21610;-64
2022/01/13 10:37:48;;;;;;;23.92;12.50;;;;;;;-4.25;61.60;101197.95;1725879;81;21807;-64
2022/01/13 10:40:22;;;;;;;22.42;12.70;;;;;;;-4.17;61.69;101191.93;1737703;80;21654;-64
2022/01/13 10:45:51;;;;;;;23.10;13.72;;;;;;;-3.99;61.62;101201.22;1727757;80;21105;-64
2022/01/13 10:48:26;;;;;;;23.35;12.75;;;;;;;-3.95;61.57;101184.92;1741849;80;21046;-63
2022/01/13 10:51:04;;;;;;;24.12;13.25;;;;;;;-3.87;61.72;101175.00;1725358;80;21202;-64
2022/01/13 10:53:40;;;;;;;21.15;12.75;;;;;;;-3.80;61.71;101172.39;1743492;80;21042;-63
2022/01/13 10:56:09;;;;;;;22.25;13.98;;;;;;;-3.72;61.57;101166.31;1725922;80;21019;-64
2022/01/13 10:58:42;;;;;;;25.00;15.38;;;;;;;-3.64;61.57;101158.95;1742649;80;21024;-64
2022/01/13 11:01:10;;;;;;;23.55;13.78;;;;;;;-3.55;61.51;101160.16;1744099;80;21109;-64
2022/01/13 11:03:39;;;;;;;21.00;13.18;;;;;;;-3.44;61.56;101156.19;1745859;80;21137;-63
2022/01/13 11:06:08;;;;;;;25.82;14.55;;;;;;;-3.32;61.43;101146.20;1742083;80;21525;-64
2022/01/13 11:08:44;;;;;;;27.85;13.48;;;;;;;-3.23;61.26;101141.39;1744114;80;21747;-64
2022/01/13 11:11:21;;;;;;;27.85;12.53;;;;;;;-3.20;61.38;101130.62;1742582;80;21102;-64
2022/01/13 11:13:56;;;;;;;;;;;;;;;-3.13;61.46;101125.41;1743974;80;21089;-64
2022/01/13 11:16:23;;;;;;;21.48;13.08;;;;;;;-3.07;61.58;101122.78;1744162;80;20959;-65
2022/01/13 11:18:49;;;;;;;33.48;15.85;;;;;;;-3.04;61.91;101111.16;1743820;80;21057;-65
2022/01/13 11:21:15;;;;;;;21.23;12.82;;;;;;;-2.95;61.75;101099.44;1744684;80;22202;-65
2022/01/13 11:23:45;;;;;;;26.40;14.58;;;;;;;-2.93;61.85;101087.39;1743819;80;21070;-65
2022/01/13 11:26:12;;;;;;;25.40;14.50;;;;;;;-2.88;62.35;101080.45;1746986;80;20999;-65
2022/01/13 11:28:39;;;;;;;24.25;14.28;;;;;;;-2.85;62.52;101068.83;1739797;80;21144;-64
2022/01/13 11:31:10;;;;;;;30.23;15.50;;;;;;;-2.81;62.61;101075.66;1733076;81;22351;-65
2022/01/13 11:33:38;;;;;;;25.50;14.20;;;;;;;-2.76;62.65;101063.14;1744004;80;21551;-64
2022/01/13 11:36:07;;;;;;;25.10;14.30;;;;;;;-2.71;62.80;101060.90;1734251;81;21098;-64
2022/01/13 11:38:33;;;;;;;22.87;14.03;;;;;;;-2.63;62.71;101058.23;1712268;80;21034;-65
2022/01/13 11:41:06;;;;;;;34.63;15.48;;;;;;;-2.59;63.13;101046.98;1742873;80;21106;-64
2022/01/13 11:43:40;;;;;;;25.37;13.62;;;;;;;-2.55;63.40;101033.20;1723423;80;21610;-66